Time;durP1;ratioP1;P1;durP2;ratioP2;P2;SDS_P1;SDS_P2;PMS_P1;PMS_P2;Temp;Humidity;BMP_temperature;BMP_pressure;BME280_temperature;BME280_humidity;BME280_pressure;Samples;Min_cycle;Max_cycle;Signal;HPM_P1;HPM_P2
2022/02/07 00:01:46;;;;;;;;;;;;;;;22.01;22.71;97635.44;4976517;28;1026;-72
2022/02/07 00:04:16;;;;;;;;;;;;;;;21.99;22.58;97644.41;4976795;28;1012;-72
2022/02/07 00:06:43;;;;;;;;;;;;;;;21.97;22.39;97629.13;4961060;28;1051;-72
2022/02/07 00:09:08;;;;;;;;;;;;;;;22.37;22.17;97629.34;4976279;28;1161;-69
2022/02/07 00:11:34;;;;;;;;;;;;;;;22.09;22.15;97625.47;4960142;28;2042;-69
2022/02/07 00:14:00;;;;;;;;;;;;;;;21.87;22.79;97624.63;4976876;28;1134;-72
2022/02/07 00:16:25;;;;;;;;;;;;;;;22.27;22.13;97622.81;4976479;28;996;-72
2022/02/07 00:18:51;;;;;;;;;;;;;;;21.90;22.54;97613.16;4976100;28;933;-69
2022/02/07 00:21:16;;;;;;;;;;;;;;;21.97;22.50;97612.13;4976041;28;1018;-72
2022/02/07 00:23:41;;;;;;;;;;;;;;;21.96;22.39;97602.03;4976533;28;960;-72
2022/02/07 00:26:07;;;;;;;;;;;;;;;22.07;22.49;97602.44;4960135;28;1001;-72
2022/02/07 00:28:32;;;;;;;;;;;;;;;22.14;22.26;97604.28;4997794;28;1096;-71
2022/02/07 00:30:58;;;;;;;;;;;;;;;21.98;22.69;97602.38;4998067;28;935;-71
2022/02/07 00:33:23;;;;;;;;;;;;;;;21.91;22.73;97602.59;4994948;28;1914;-71
2022/02/07 00:35:49;;;;;;;;;;;;;;;22.12;22.11;97593.41;4995722;28;975;-72
2022/02/07 00:38:18;;;;;;;;;;;;;;;21.84;22.58;97589.50;4994664;28;1197;-71
2022/02/07 00:43:28;;;;;;;;;;;;;;;21.49;23.37;97589.41;4995331;28;1068;-72
2022/02/07 00:46:03;;;;;;;;;;;;;;;21.71;22.92;97583.88;4995399;28;1115;-72
2022/02/07 00:48:29;;;;;;;;;;;;;;;21.98;22.44;97572.00;4965513;28;1081;-72
2022/02/07 00:50:56;;;;;;;;;;;;;;;21.94;22.57;97571.34;4978903;28;1105;-72
2022/02/07 00:53:24;;;;;;;;;;;;;;;22.25;22.30;97567.84;4978746;28;2000;-71
2022/02/07 00:55:50;;;;;;;;;;;;;;;22.30;22.31;97565.22;4975557;28;1324;-71
2022/02/07 00:58:16;;;;;;;;;;;;;;;22.19;22.43;97555.53;4975446;28;1002;-72
2022/02/07 01:00:41;;;;;;;;;;;;;;;21.49;23.08;97543.34;4975741;28;941;-71
2022/02/07 01:03:07;;;;;;;;;;;;;;;21.70;23.11;97548.28;4975416;28;1331;-71
2022/02/07 01:05:34;;;;;;;;;;;;;;;22.04;22.59;97538.22;4939919;28;1470;-72
2022/02/07 01:08:05;;;;;;;;;;;;;;;22.08;22.64;97527.56;4955555;28;1282;-71
2022/02/07 01:10:45;;;;;;;;;;;;;;;22.28;22.30;97525.22;4956152;28;1096;-72
2022/02/07 01:45:57;;;;;;;;;;;;;;;21.98;22.76;97506.84;4961737;28;961;-71
2022/02/07 01:46:15;;;;;;;;;;;;;;;21.61;23.28;97460.44;4923051;29;950;-71
2022/02/07 01:51:51;;;;;;;;;;;;;;;22.04;22.58;97448.34;4901120;29;1902;-71
2022/02/07 01:54:34;;;;;;;;;;;;;;;21.81;22.67;97441.09;4873303;29;1316;-71
2022/02/07 01:57:09;;;;;;;;;;;;;;;21.24;23.27;97437.44;4873572;29;1236;-72
2022/02/07 01:59:35;;;;;;;;;;;;;;;21.53;23.29;97436.44;4860887;29;1198;-71
2022/02/07 02:02:01;;;;;;;;;;;;;;;21.93;22.76;97435.84;4876529;29;1481;-71
2022/02/07 02:04:26;;;;;;;;;;;;;;;21.69;23.21;97439.09;4860865;29;1120;-72
2022/02/07 02:06:52;;;;;;;;;;;;;;;21.46;23.56;97425.41;4876447;29;1185;-72
2022/02/07 02:09:27;;;;;;;;;;;;;;;21.94;22.89;97431.75;4875474;29;1752;-71
2022/02/07 02:11:55;;;;;;;;;;;;;;;22.21;22.27;97431.16;4889455;29;1919;-72
2022/02/07 02:22:42;;;;;;;;;;;;;;;21.96;22.82;97418.69;4903011;29;1058;-72
2022/02/07 02:46:35;;;;;;;;;;;;;;;22.02;22.57;97370.72;4958483;29;1047;-72
2022/02/07 02:49:03;;;;;;;;;;;;;;;21.97;22.61;97374.19;4958804;29;1016;-72
2022/02/07 02:51:31;;;;;;;;;;;;;;;21.93;22.83;97382.03;4939141;29;1902;-71
2022/02/07 02:53:56;;;;;;;;;;;;;;;21.92;22.87;97371.94;4935321;29;1286;-71
2022/02/07 02:56:22;;;;;;;;;;;;;;;22.19;22.29;97363.63;4923301;29;1296;-72
2022/02/07 02:58:51;;;;;;;;;;;;;;;22.07;22.51;97364.47;4939290;29;1075;-71
2022/02/07 03:01:17;;;;;;;;;;;;;;;22.03;22.48;97350.47;4931417;29;1076;-71
2022/02/07 03:03:48;;;;;;;;;;;;;;;21.71;22.97;97345.19;4942492;29;1128;-72
2022/02/07 03:06:14;;;;;;;;;;;;;;;21.72;23.22;97341.94;4958266;29;1037;-71
2022/02/07 03:08:40;;;;;;;;;;;;;;;21.88;22.63;97343.75;4939261;29;1209;-71
2022/02/07 03:11:19;;;;;;;;;;;;;;;21.92;22.86;97346.47;4920137;29;1287;-71
2022/02/07 03:13:52;;;;;;;;;;;;;;;21.97;22.85;97345.88;4903929;29;1243;-72
2022/02/07 03:16:38;;;;;;;;;;;;;;;22.00;22.70;97342.09;4904075;29;1113;-72
2022/02/07 03:19:13;;;;;;;;;;;;;;;21.98;22.95;97336.09;4919774;29;1276;-72
2022/02/07 03:21:40;;;;;;;;;;;;;;;22.29;22.23;97331.25;4919667;29;1235;-72
2022/02/07 03:24:06;;;;;;;;;;;;;;;21.49;23.29;97334.66;4904111;29;1154;-72
2022/02/07 03:26:36;;;;;;;;;;;;;;;22.00;22.64;97328.72;4919587;29;1572;-72
2022/02/07 03:29:04;;;;;;;;;;;;;;;21.95;22.69;97325.69;4903789;29;1581;-72
2022/02/07 03:31:30;;;;;;;;;;;;;;;21.88;22.86;97314.66;4924171;29;1910;-71
2022/02/07 03:33:57;;;;;;;;;;;;;;;21.92;22.56;97306.81;4919547;29;1333;-71
2022/02/07 03:36:28;;;;;;;;;;;;;;;21.75;23.12;97312.66;4900752;29;946;-72
2022/02/07 03:38:54;;;;;;;;;;;;;;;22.00;22.77;97308.09;4897352;29;1140;-71
2022/02/07 03:41:19;;;;;;;;;;;;;;;21.79;22.90;97302.00;4863235;29;1029;-71
2022/02/07 03:43:45;;;;;;;;;;;;;;;21.93;22.71;97299.88;4863242;29;1129;-71
2022/02/07 03:46:12;;;;;;;;;;;;;;;22.06;22.55;97295.69;4863159;29;1256;-71
2022/02/07 03:48:37;;;;;;;;;;;;;;;22.23;22.56;97295.50;4844558;29;1126;-72
2022/02/07 03:51:03;;;;;;;;;;;;;;;22.26;22.39;97288.88;4844678;29;1079;-71
2022/02/07 03:53:28;;;;;;;;;;;;;;;22.08;22.51;97272.56;4844318;29;1915;-71
2022/02/07 03:55:58;;;;;;;;;;;;;;;22.15;22.67;97266.63;4844572;29;1174;-71
2022/02/07 03:58:25;;;;;;;;;;;;;;;21.75;23.10;97260.91;4832883;29;1124;-71
2022/02/07 04:00:53;;;;;;;;;;;;;;;21.97;22.70;97256.00;4847578;29;1071;-71
2022/02/07 04:03:33;;;;;;;;;;;;;;;21.85;22.74;97254.81;4833957;29;1237;-71
2022/02/07 04:06:02;;;;;;;;;;;;;;;21.36;23.43;97246.22;4828427;29;1003;-72
2022/02/07 04:08:38;;;;;;;;;;;;;;;21.93;23.02;97248.91;4810898;29;1146;-72
2022/02/07 04:11:29;;;;;;;;;;;;;;;21.89;22.75;97265.25;4825938;29;1167;-72
2022/02/07 04:13:57;;;;;;;;;;;;;;;21.57;23.39;97251.06;4858270;29;1140;-72
2022/02/07 04:16:23;;;;;;;;;;;;;;;21.67;23.01;97249.09;4865754;29;1081;-71
2022/02/07 04:19:14;;;;;;;;;;;;;;;22.01;22.61;97244.50;4907456;29;1221;-71
2022/02/07 04:21:43;;;;;;;;;;;;;;;21.97;22.58;97233.34;4940875;29;1112;-72
2022/02/07 04:24:10;;;;;;;;;;;;;;;22.18;22.50;97247.94;4940900;29;1133;-72
2022/02/07 04:26:41;;;;;;;;;;;;;;;22.31;22.46;97229.53;4940874;29;1459;-71
2022/02/07 04:29:08;;;;;;;;;;;;;;;22.19;22.30;97236.13;4940637;29;1434;-71
2022/02/07 04:31:36;;;;;;;;;;;;;;;21.95;22.90;97229.38;4940528;29;1902;-72
2022/02/07 04:34:03;;;;;;;;;;;;;;;21.92;22.90;97224.66;4902906;29;1262;-71
2022/02/07 04:36:29;;;;;;;;;;;;;;;21.96;22.92;97222.47;4902836;29;1605;-72
2022/02/07 04:38:55;;;;;;;;;;;;;;;22.01;22.40;97233.19;4923130;29;1169;-71
2022/02/07 04:41:23;;;;;;;;;;;;;;;22.03;22.75;97228.63;4901532;29;1280;-72
2022/02/07 04:43:56;;;;;;;;;;;;;;;22.41;22.30;97227.50;4907146;29;1381;-72
2022/02/07 04:49:15;;;;;;;;;;;;;;;21.91;22.78;97211.75;4895465;29;1382;-71
2022/02/07 04:51:57;;;;;;;;;;;;;;;21.86;23.09;97215.97;4910764;29;1988;-72
2022/02/07 04:57:12;;;;;;;;;;;;;;;22.10;22.54;97208.53;4899546;29;1224;-72
2022/02/07 05:05:12;;;;;;;;;;;;;;;21.77;23.13;97208.25;4861415;29;1304;-71
2022/02/07 05:13:44;;;;;;;;;;;;;;;22.04;22.59;97212.44;4825055;29;1134;-72
2022/02/07 05:16:11;;;;;;;;;;;;;;;22.04;22.77;97201.09;4879625;29;1789;-71
2022/02/07 05:18:37;;;;;;;;;;;;;;;22.15;22.78;97187.31;4879912;29;1623;-71
2022/02/07 05:21:26;;;;;;;;;;;;;;;22.04;22.77;97198.25;4879680;29;1721;-71
2022/02/07 05:24:17;;;;;;;;;;;;;;;21.92;22.79;97204.84;4842769;29;1136;-72
2022/02/07 05:27:00;;;;;;;;;;;;;;;21.42;23.54;97206.81;4842895;29;1810;-71
2022/02/07 05:30:06;;;;;;;;;;;;;;;21.94;22.68;97203.09;4842806;29;1021;-72
2022/02/07 05:32:50;;;;;;;;;;;;;;;21.91;22.87;97201.19;4837221;29;1919;-71
2022/02/07 05:35:33;;;;;;;;;;;;;;;21.86;22.82;97204.63;4824382;29;1688;-71
2022/02/07 05:38:17;;;;;;;;;;;;;;;21.87;22.67;97199.78;4824317;29;1166;-71
2022/02/07 05:41:07;;;;;;;;;;;;;;;21.84;23.05;97199.44;4810989;29;1285;-71
2022/02/07 05:43:53;;;;;;;;;;;;;;;21.23;23.86;97208.69;4788476;29;1025;-71
2022/02/07 05:46:28;;;;;;;;;;;;;;;21.84;23.04;97193.78;4826881;29;1750;-71
2022/02/07 05:49:24;;;;;;;;;;;;;;;21.82;23.03;97201.97;4824464;29;1989;-71
2022/02/07 05:52:15;;;;;;;;;;;;;;;21.63;23.17;97194.63;4788307;30;1974;-72
2022/02/07 05:55:15;;;;;;;;;;;;;;;21.87;23.18;97194.13;4798815;29;1075;-71
2022/02/07 05:58:01;;;;;;;;;;;;;;;21.81;22.98;97191.91;4787942;29;1295;-71
2022/02/07 06:00:49;;;;;;;;;;;;;;;21.73;23.31;97190.59;4810558;29;1025;-71
2022/02/07 06:03:17;;;;;;;;;;;;;;;22.02;22.76;97190.25;4842598;29;1144;-72
2022/02/07 06:05:51;;;;;;;;;;;;;;;21.99;22.97;97193.22;4854616;29;1743;-71
2022/02/07 06:08:26;;;;;;;;;;;;;;;21.58;23.48;97195.25;4879660;29;1205;-71
2022/02/07 06:10:52;;;;;;;;;;;;;;;21.79;23.26;97200.06;4911427;29;1181;-71
2022/02/07 06:13:19;;;;;;;;;;;;;;;21.96;22.83;97191.31;4879207;29;1911;-71
2022/02/07 06:15:54;;;;;;;;;;;;;;;22.05;22.93;97185.66;4878882;29;1991;-72
2022/02/07 06:18:21;;;;;;;;;;;;;;;22.07;22.83;97197.31;4860296;29;1995;-72
2022/02/07 06:20:49;;;;;;;;;;;;;;;22.49;22.16;97194.00;4876282;29;1129;-72
2022/02/07 06:23:15;;;;;;;;;;;;;;;22.40;22.13;97196.81;4873186;29;1885;-71
2022/02/07 06:25:43;;;;;;;;;;;;;;;21.94;22.86;97199.50;4879285;29;1392;-71
2022/02/07 06:28:09;;;;;;;;;;;;;;;21.65;23.15;97189.28;4872703;29;1876;-73
2022/02/07 06:30:48;;;;;;;;;;;;;;;21.63;23.15;97152.19;4857818;29;1209;-72
2022/02/07 06:33:14;;;;;;;;;;;;;;;21.95;22.78;97201.06;4861241;29;1907;-72
2022/02/07 06:35:41;;;;;;;;;;;;;;;21.72;23.30;97197.53;4894518;29;1756;-71
2022/02/07 06:38:07;;;;;;;;;;;;;;;22.27;22.76;97194.09;4860696;29;1414;-71
2022/02/07 06:40:34;;;;;;;;;;;;;;;22.71;21.82;97197.47;4860524;29;1329;-71
2022/02/07 06:42:59;;;;;;;;;;;;;;;22.15;22.75;97198.63;4878263;29;959;-71
2022/02/07 06:45:25;;;;;;;;;;;;;;;22.06;22.71;97195.75;4879432;29;969;-71
2022/02/07 06:47:51;;;;;;;;;;;;;;;22.27;22.47;97194.88;4871302;29;1216;-71
2022/02/07 06:50:16;;;;;;;;;;;;;;;22.13;22.84;97197.53;4905131;29;1059;-72
2022/02/07 06:52:42;;;;;;;;;;;;;;;22.20;22.71;97198.03;4916741;29;1927;-71
2022/02/07 06:55:08;;;;;;;;;;;;;;;22.07;22.89;97195.28;4916475;29;1405;-71
2022/02/07 06:57:34;;;;;;;;;;;;;;;21.98;22.76;97188.81;4968471;28;1747;-71
2022/02/07 07:00:03;;;;;;;;;;;;;;;21.68;23.39;97187.59;4961326;28;1149;-72
2022/02/07 07:02:29;;;;;;;;;;;;;;;21.85;23.22;97198.19;4976636;28;1866;-71
2022/02/07 07:05:04;;;;;;;;;;;;;;;22.06;22.93;97190.06;4977559;28;1203;-71
2022/02/07 07:07:30;;;;;;;;;;;;;;;21.99;22.83;97184.72;4980581;28;1304;-71
2022/02/07 07:09:58;;;;;;;;;;;;;;;21.92;23.15;97187.84;4941936;29;1881;-71
2022/02/07 07:12:23;;;;;;;;;;;;;;;22.08;22.75;97187.59;4958244;28;1903;-72
2022/02/07 07:15:05;;;;;;;;;;;;;;;22.06;22.87;97184.41;4970241;28;1379;-71
2022/02/07 07:17:31;;;;;;;;;;;;;;;22.16;22.66;97188.88;4964330;28;1680;-71
2022/02/07 07:20:01;;;;;;;;;;;;;;;22.00;23.01;97178.56;4958093;28;1214;-71
2022/02/07 07:22:31;;;;;;;;;;;;;;;21.97;23.01;97182.34;4957864;28;1079;-71
2022/02/07 07:24:57;;;;;;;;;;;;;;;21.99;22.76;97179.06;4957596;29;1770;-72
2022/02/07 07:27:28;;;;;;;;;;;;;;;21.86;23.31;97176.31;4958018;28;1104;-71
2022/02/07 07:29:55;;;;;;;;;;;;;;;22.05;22.88;97177.16;4949914;28;1229;-71
2022/02/07 07:32:25;;;;;;;;;;;;;;;22.01;23.02;97176.53;4938538;29;1898;-72
2022/02/07 07:34:54;;;;;;;;;;;;;;;22.25;22.64;97171.91;4938366;29;1319;-72
2022/02/07 07:37:22;;;;;;;;;;;;;;;22.06;22.62;97173.88;4919474;29;1132;-71
2022/02/07 07:39:48;;;;;;;;;;;;;;;21.92;22.83;97168.03;4880762;29;1830;-71
2022/02/07 07:42:15;;;;;;;;;;;;;;;22.16;22.66;97171.09;4891850;29;1184;-71
2022/02/07 07:45:18;;;;;;;;;;;;;;;22.00;23.00;97172.13;4844821;29;2056;-71
2022/02/07 07:47:59;;;;;;;;;;;;;;;21.89;23.34;97174.59;4843858;29;1807;-71
2022/02/07 07:53:43;;;;;;;;;;;;;;;21.84;22.89;97156.97;4860157;29;1915;-71
2022/02/07 08:02:06;;;;;;;;;;;;;;;22.01;23.09;97151.81;4844434;29;1393;-71
2022/02/07 08:04:34;;;;;;;;;;;;;;;21.98;23.12;97149.16;4831415;29;1948;-72
2022/02/07 08:12:11;;;;;;;;;;;;;;;22.00;22.89;97152.28;4841283;29;1907;-71
2022/02/07 08:14:40;;;;;;;;;;;;;;;21.91;23.20;97133.22;4825892;29;1078;-71
2022/02/07 08:17:06;;;;;;;;;;;;;;;21.66;23.45;97145.59;4857015;29;1851;-71
2022/02/07 08:19:33;;;;;;;;;;;;;;;21.75;23.45;97137.09;4848571;29;1077;-72
2022/02/07 08:21:58;;;;;;;;;;;;;;;22.07;23.01;97135.00;4891399;29;1199;-71
2022/02/07 08:24:24;;;;;;;;;;;;;;;21.92;23.17;97129.16;4899823;29;1027;-71
2022/02/07 08:26:52;;;;;;;;;;;;;;;21.45;23.79;97126.63;4909423;29;996;-71
2022/02/07 08:29:17;;;;;;;;;;;;;;;21.89;23.32;97132.13;4880785;29;1086;-72
2022/02/07 08:31:43;;;;;;;;;;;;;;;21.98;22.85;97129.31;4880840;29;1915;-71
2022/02/07 08:34:08;;;;;;;;;;;;;;;21.87;23.24;97140.31;4880288;29;1133;-71
2022/02/07 08:36:34;;;;;;;;;;;;;;;21.97;22.95;97137.03;4880796;29;1003;-71
2022/02/07 08:38:59;;;;;;;;;;;;;;;21.90;23.19;97133.69;4880464;29;1049;-71
2022/02/07 08:41:25;;;;;;;;;;;;;;;21.98;22.94;97126.50;4880976;29;984;-71
2022/02/07 08:43:53;;;;;;;;;;;;;;;21.58;23.60;97127.31;4880891;29;941;-71
2022/02/07 08:46:19;;;;;;;;;;;;;;;21.50;23.62;97120.34;4890429;29;1067;-71
2022/02/07 08:48:44;;;;;;;;;;;;;;;21.92;23.29;97117.03;4899536;29;1410;-71
2022/02/07 08:51:10;;;;;;;;;;;;;;;22.03;22.93;97117.38;4901828;29;1097;-72
2022/02/07 08:53:42;;;;;;;;;;;;;;;21.85;23.22;97118.91;4901355;29;1962;-71
2022/02/07 08:56:08;;;;;;;;;;;;;;;22.12;22.67;97117.41;4899462;29;960;-72
2022/02/07 08:58:37;;;;;;;;;;;;;;;21.56;23.74;97124.16;4899248;29;1023;-72
2022/02/07 09:01:18;;;;;;;;;;;;;;;21.90;23.19;97125.19;4930764;29;1001;-71
2022/02/07 09:06:38;;;;;;;;;;;;;;;21.96;22.97;97106.31;4956297;28;945;-71
2022/02/07 09:11:32;;;;;;;;;;;;;;;21.77;23.18;97100.63;4993792;28;1710;-71
2022/02/07 09:14:00;;;;;;;;;;;;;;;21.73;23.46;97088.66;4994819;28;1894;-71
2022/02/07 09:16:33;;;;;;;;;;;;;;;21.68;23.45;97089.28;4994727;28;1725;-72
2022/02/07 09:19:00;;;;;;;;;;;;;;;21.83;23.22;97084.59;5002479;28;1942;-71
2022/02/07 09:21:25;;;;;;;;;;;;;;;21.92;23.34;97094.38;5001641;28;970;-71
2022/02/07 09:23:51;;;;;;;;;;;;;;;22.17;22.90;97088.44;5036775;28;990;-71
2022/02/07 09:26:16;;;;;;;;;;;;;;;22.14;22.78;97083.75;5036262;28;1004;-71
2022/02/07 09:28:42;;;;;;;;;;;;;;;22.10;22.70;97080.22;5035621;28;1681;-71
2022/02/07 09:31:08;;;;;;;;;;;;;;;22.11;22.81;97079.00;4993786;28;1698;-72
2022/02/07 09:33:34;;;;;;;;;;;;;;;21.36;23.83;97070.00;4994210;28;1922;-71
2022/02/07 09:35:59;;;;;;;;;;;;;;;21.90;23.31;97062.91;4994553;28;995;-71
2022/02/07 09:38:25;;;;;;;;;;;;;;;21.69;23.52;97053.25;4994027;28;1239;-71
2022/02/07 09:40:52;;;;;;;;;;;;;;;22.18;23.08;97044.72;4961980;28;904;-71
2022/02/07 09:43:19;;;;;;;;;;;;;;;22.76;22.20;97037.25;4933934;29;1000;-71
2022/02/07 09:45:45;;;;;;;;;;;;;;;22.42;22.59;97029.88;4936327;29;1016;-72
2022/02/07 09:48:11;;;;;;;;;;;;;;;22.12;22.68;97035.25;4879836;29;1799;-74
2022/02/07 09:50:36;;;;;;;;;;;;;;;21.85;23.14;97042.44;4860714;29;1858;-71
2022/02/07 09:53:02;;;;;;;;;;;;;;;22.29;22.56;97032.91;4860617;29;1903;-72
2022/02/07 09:55:28;;;;;;;;;;;;;;;22.50;22.48;97020.59;4842592;29;1035;-71
2022/02/07 09:57:54;;;;;;;;;;;;;;;22.33;22.48;97011.66;4842156;29;1761;-71
2022/02/07 10:00:24;;;;;;;;;;;;;;;22.21;22.88;97003.28;4860882;29;1021;-72
2022/02/07 10:03:05;;;;;;;;;;;;;;;22.34;22.73;96993.38;4875944;29;1052;-71
2022/02/07 10:05:34;;;;;;;;;;;;;;;22.08;22.81;96989.28;4894141;29;1338;-71
2022/02/07 10:10:52;;;;;;;;;;;;;;;22.29;22.82;96979.84;4879721;29;1121;-72
2022/02/07 10:18:43;;;;;;;;;;;;;;;21.93;23.32;96968.50;4874636;29;1062;-71
2022/02/07 10:21:28;;;;;;;;;;;;;;;21.97;23.12;96967.09;4860690;29;1098;-71
2022/02/07 10:43:08;;;;;;;;;;;;;;;22.15;23.08;96946.47;4865056;29;985;-72
2022/02/07 10:45:35;;;;;;;;;;;;;;;22.03;23.23;96941.75;4883212;29;1007;-71
2022/02/07 10:48:04;;;;;;;;;;;;;;;21.99;23.30;96929.78;4882962;29;1021;-72
2022/02/07 10:50:30;;;;;;;;;;;;;;;22.11;23.03;96937.34;4883169;29;888;-71
2022/02/07 10:52:58;;;;;;;;;;;;;;;22.20;23.10;96923.16;4882125;29;1903;-71
2022/02/07 10:55:24;;;;;;;;;;;;;;;22.05;23.21;96934.34;4908165;28;1002;-71
2022/02/07 10:57:51;;;;;;;;;;;;;;;21.89;23.34;96919.72;4958381;28;1006;-71
2022/02/07 11:00:21;;;;;;;;;;;;;;;22.10;23.19;96913.91;4958659;28;1013;-72
2022/02/07 11:02:55;;;;;;;;;;;;;;;22.03;23.29;96907.75;4938951;29;1090;-72
2022/02/07 11:05:23;;;;;;;;;;;;;;;22.36;22.40;96899.38;4939327;29;1063;-72
2022/02/07 11:07:54;;;;;;;;;;;;;;;21.98;23.35;96903.50;4901182;29;2025;-72
2022/02/07 11:16:01;;;;;;;;;;;;;;;21.90;23.56;96892.97;4919584;29;1720;-72
2022/02/07 11:18:47;;;;;;;;;;;;;;;21.96;23.51;96885.41;4920108;29;1000;-72
2022/02/07 11:21:33;;;;;;;;;;;;;;;21.99;23.21;96884.47;4920081;29;1033;-72
2022/02/07 11:24:18;;;;;;;;;;;;;;;22.31;22.73;96892.28;4920120;29;1046;-71
2022/02/07 11:26:49;;;;;;;;;;;;;;;22.00;23.16;96891.69;4919551;29;1697;-72
2022/02/07 11:29:34;;;;;;;;;;;;;;;21.88;23.32;96889.84;4920250;29;975;-71
2022/02/07 11:32:00;;;;;;;;;;;;;;;21.94;23.22;96885.88;4919912;29;1965;-72
2022/02/07 11:34:39;;;;;;;;;;;;;;;21.96;23.42;96868.41;4903842;29;1091;-72
2022/02/07 11:37:17;;;;;;;;;;;;;;;21.42;23.89;96858.72;4900433;29;1697;-72
2022/02/07 11:39:43;;;;;;;;;;;;;;;21.85;23.51;96846.25;4923731;29;1261;-72
2022/02/07 11:42:11;;;;;;;;;;;;;;;21.89;23.48;96838.38;4947595;28;1696;-72
2022/02/07 11:44:36;;;;;;;;;;;;;;;22.02;23.29;96849.50;4957534;28;1715;-71
2022/02/07 11:47:20;;;;;;;;;;;;;;;22.51;22.32;96848.44;4957758;28;1035;-72
2022/02/07 11:49:49;;;;;;;;;;;;;;;22.51;22.35;96845.63;4957571;28;986;-72
2022/02/07 11:52:27;;;;;;;;;;;;;;;22.07;23.32;96834.72;5004443;28;1989;-72
2022/02/07 11:54:56;;;;;;;;;;;;;;;21.82;23.46;96831.00;4976774;28;960;-71
2022/02/07 11:57:23;;;;;;;;;;;;;;;21.92;23.30;96833.84;4976579;28;961;-71
2022/02/07 11:59:58;;;;;;;;;;;;;;;21.93;23.50;96824.06;4976325;28;1899;-72
2022/02/07 12:02:33;;;;;;;;;;;;;;;21.85;23.53;96818.72;4960361;28;922;-72
2022/02/07 12:04:59;;;;;;;;;;;;;;;21.90;23.39;96822.19;4976436;28;1148;-72
2022/02/07 12:07:30;;;;;;;;;;;;;;;22.23;22.86;96808.91;4976777;28;1001;-72
2022/02/07 12:09:58;;;;;;;;;;;;;;;21.90;23.32;96819.34;4976408;28;1035;-72
2022/02/07 12:12:39;;;;;;;;;;;;;;;22.00;23.49;96812.41;4976221;28;1919;-65
2022/02/07 12:15:46;;;;;;;;;;;;;;;23.43;22.24;96800.44;4975721;28;1702;-76
2022/02/07 12:18:14;;;;;;;;;;;;;;;23.56;22.06;96797.31;4975970;28;1045;-76
2022/02/07 12:20:40;;;;;;;;;;;;;;;23.73;22.38;96795.63;4976245;28;1805;-74
2022/02/07 12:23:09;;;;;;;;;;;;;;;23.50;22.97;96799.28;4984684;28;1658;-74
2022/02/07 12:25:38;;;;;;;;;;;;;;;23.23;23.56;96801.09;5003872;28;983;-75
2022/02/07 12:28:07;;;;;;;;;;;;;;;23.15;24.02;96797.03;5017541;28;1696;-74
2022/02/07 12:30:45;;;;;;;;;;;;;;;22.97;25.04;96785.84;5016550;28;1019;-73
2022/02/07 12:33:10;;;;;;;;;;;;;;;23.02;25.50;96793.69;5016050;28;1910;-75
2022/02/07 12:35:36;;;;;;;;;;;;;;;22.97;25.71;96791.50;5017508;28;942;-75
2022/02/07 12:38:01;;;;;;;;;;;;;;;23.01;26.29;96790.06;5021358;28;1715;-75
2022/02/07 12:40:27;;;;;;;;;;;;;;;23.09;26.42;96798.97;5037064;28;1040;-75
2022/02/07 12:42:52;;;;;;;;;;;;;;;22.96;26.39;96795.63;5036878;28;927;-74
2022/02/07 12:45:23;;;;;;;;;;;;;;;23.03;26.15;96792.41;4995247;28;959;-75
2022/02/07 12:47:50;;;;;;;;;;;;;;;23.18;25.85;96790.41;4975463;28;1726;-74
2022/02/07 12:50:18;;;;;;;;;;;;;;;23.29;26.08;96795.53;4975522;28;1000;-74
2022/02/07 12:52:43;;;;;;;;;;;;;;;23.21;26.31;96803.63;4937089;29;1980;-74
2022/02/07 12:55:11;;;;;;;;;;;;;;;23.13;26.85;96803.22;4920691;29;1792;-76
2022/02/07 12:57:38;;;;;;;;;;;;;;;23.26;27.01;96797.28;4921300;29;1586;-74
2022/02/07 13:00:03;;;;;;;;;;;;;;;23.42;26.95;96793.22;4936526;29;1703;-75
2022/02/07 13:02:29;;;;;;;;;;;;;;;23.29;27.34;96790.63;4920967;29;1026;-75
2022/02/07 13:04:54;;;;;;;;;;;;;;;23.45;27.06;96802.78;4936628;29;995;-75
2022/02/07 13:07:21;;;;;;;;;;;;;;;23.76;26.76;96797.47;4936543;29;952;-65
2022/02/07 13:09:54;;;;;;;;;;;;;;;23.20;26.96;96787.84;4936875;29;1022;-71
2022/02/07 13:15:08;;;;;;;;;;;;;;;22.63;27.12;96763.16;4880041;29;1694;-71
2022/02/07 13:17:33;;;;;;;;;;;;;;;22.60;26.61;96783.22;4936619;29;1115;-71
2022/02/07 13:20:04;;;;;;;;;;;;;;;22.69;26.65;96771.00;4955473;29;1360;-72
2022/02/07 13:22:29;;;;;;;;;;;;;;;23.20;25.62;96770.03;4955915;29;985;-71
2022/02/07 13:24:56;;;;;;;;;;;;;;;23.24;25.38;96762.91;4917558;29;1353;-71
2022/02/07 13:27:23;;;;;;;;;;;;;;;23.20;25.22;96764.38;4917134;29;2682;-72
2022/02/07 13:29:51;;;;;;;;;;;;;;;22.75;25.32;96775.56;4916462;29;1812;-71
2022/02/07 13:32:22;;;;;;;;;;;;;;;22.67;25.47;96774.34;4917086;29;1922;-71
2022/02/07 13:34:50;;;;;;;;;;;;;;;22.79;25.17;96764.00;4901866;29;1436;-71
2022/02/07 13:37:17;;;;;;;;;;;;;;;23.05;24.74;96752.97;4898647;29;992;-71
2022/02/07 13:39:52;;;;;;;;;;;;;;;23.23;24.57;96764.19;4879473;29;1769;-71
2022/02/07 13:42:17;;;;;;;;;;;;;;;23.26;24.21;96763.22;4864547;29;1037;-71
2022/02/07 13:44:45;;;;;;;;;;;;;;;23.36;24.13;96759.03;4842256;29;1339;-71
2022/02/07 13:47:10;;;;;;;;;;;;;;;22.98;24.26;96759.81;4805973;29;993;-72
2022/02/07 13:49:54;;;;;;;;;;;;;;;22.80;24.20;96760.72;4783196;29;1709;-71
2022/02/07 13:52:19;;;;;;;;;;;;;;;22.56;24.52;96751.41;4780271;29;1899;-71
2022/02/07 13:54:45;;;;;;;;;;;;;;;23.08;24.03;96746.34;4788442;30;1004;-71
2022/02/07 13:57:13;;;;;;;;;;;;;;;23.22;23.70;96745.59;4788159;29;1051;-71
2022/02/07 13:59:39;;;;;;;;;;;;;;;23.30;23.67;96752.44;4804922;29;1827;-71
2022/02/07 14:02:23;;;;;;;;;;;;;;;23.37;23.41;96742.78;4805637;29;1673;-71
2022/02/07 14:04:52;;;;;;;;;;;;;;;23.33;23.43;96731.63;4805909;29;1035;-72
2022/02/07 14:07:18;;;;;;;;;;;;;;;22.84;24.09;96715.91;4799322;29;966;-71
2022/02/07 14:09:43;;;;;;;;;;;;;;;22.57;24.37;96713.28;4812006;29;1820;-71
2022/02/07 14:12:09;;;;;;;;;;;;;;;22.84;24.05;96713.09;4824539;29;1908;-72
2022/02/07 14:14:34;;;;;;;;;;;;;;;23.09;23.69;96711.03;4825816;29;1325;-71
2022/02/07 14:17:00;;;;;;;;;;;;;;;23.22;23.44;96711.56;4847063;29;1778;-71
2022/02/07 14:19:40;;;;;;;;;;;;;;;23.19;23.78;96712.50;4904819;29;1098;-71
2022/02/07 14:22:06;;;;;;;;;;;;;;;23.34;23.41;96719.00;4940828;29;1013;-71
2022/02/07 14:24:32;;;;;;;;;;;;;;;23.29;23.57;96708.31;4961690;28;956;-71
2022/02/07 14:26:57;;;;;;;;;;;;;;;22.69;24.21;96698.09;4961473;28;990;-71
2022/02/07 14:29:23;;;;;;;;;;;;;;;22.54;24.43;96697.25;4980886;28;1016;-71
2022/02/07 14:31:48;;;;;;;;;;;;;;;22.74;24.20;96700.28;5039375;28;1975;-71
2022/02/07 14:34:14;;;;;;;;;;;;;;;23.07;23.75;96694.50;5042128;28;972;-72
2022/02/07 14:36:39;;;;;;;;;;;;;;;23.24;23.90;96694.81;5042295;28;1064;-71
2022/02/07 14:39:06;;;;;;;;;;;;;;;23.31;24.15;96697.28;5041805;28;1575;-71
2022/02/07 14:41:31;;;;;;;;;;;;;;;23.37;23.85;96695.31;5041844;28;933;-71
2022/02/07 14:44:01;;;;;;;;;;;;;;;23.09;24.01;96689.13;5042420;28;1013;-72
2022/02/07 14:46:33;;;;;;;;;;;;;;;22.92;24.51;96692.91;5024510;28;1677;-71
2022/02/07 14:48:59;;;;;;;;;;;;;;;22.56;25.04;96680.53;5042100;28;953;-71
2022/02/07 14:51:25;;;;;;;;;;;;;;;23.13;24.56;96681.19;5042315;28;1013;-71
2022/02/07 14:53:50;;;;;;;;;;;;;;;23.28;24.18;96675.53;5041649;28;1973;-71
2022/02/07 14:56:16;;;;;;;;;;;;;;;23.42;24.30;96676.03;5041950;28;1708;-71
2022/02/07 14:58:41;;;;;;;;;;;;;;;23.32;24.09;96664.78;5041724;28;994;-71
2022/02/07 15:01:07;;;;;;;;;;;;;;;22.81;24.72;96677.19;5042215;28;909;-71
2022/02/07 15:03:32;;;;;;;;;;;;;;;22.85;24.69;96669.28;5041757;28;890;-71
2022/02/07 15:05:59;;;;;;;;;;;;;;;23.04;24.78;96671.97;5041810;28;1755;-71
2022/02/07 15:08:26;;;;;;;;;;;;;;;23.08;24.96;96678.25;5041580;28;1712;-71
2022/02/07 15:10:52;;;;;;;;;;;;;;;23.32;24.30;96681.81;5041827;28;929;-71
2022/02/07 15:13:17;;;;;;;;;;;;;;;23.38;24.20;96674.19;5006837;28;1907;-71
2022/02/07 15:15:43;;;;;;;;;;;;;;;23.01;24.42;96678.66;5041662;28;934;-71
2022/02/07 15:18:09;;;;;;;;;;;;;;;22.80;25.02;96674.84;5042045;28;965;-71
2022/02/07 15:20:38;;;;;;;;;;;;;;;22.61;24.92;96663.66;5041283;28;927;-71
2022/02/07 15:23:04;;;;;;;;;;;;;;;22.87;24.90;96675.25;5041585;28;1684;-71
2022/02/07 15:25:34;;;;;;;;;;;;;;;23.14;24.64;96662.91;5041783;28;959;-71
2022/02/07 15:28:00;;;;;;;;;;;;;;;23.28;24.41;96654.91;5037766;28;1055;-72
2022/02/07 15:30:29;;;;;;;;;;;;;;;23.34;24.53;96652.94;5038628;28;911;-71